<?xml version='1.0' encoding='UTF-8'?>
<gpx xmlns="http://www.topografix.com/GPX/1/1" creator="www.balnam.be" version="1.1" xmlns:xsi="http://www.w3.org/2001/XMLSchema-instance" xsi:schemaLocation="http://www.topografix.com/GPX/1/1 http://www.topografix.com/GPX/1/1/gpx.xsd">
<trk>
<name>nrchl3</name>
<cmt>r</cmt>
<desc>Han-sur-Lesse Chemin n°3 Rue du Plan d'Eau / Rue Hamerenne</desc>
<link href="https://chemins.be/hansurlesse/chemin/3"/><trkseg>
<trkpt lat="50.126236" lon="5.185231"><time>2026-05-04T20:19:40Z</time></trkpt>
<trkpt lat="50.127958" lon="5.185848"><time>2026-05-04T20:29:40Z</time></trkpt>
<trkpt lat="50.129433" lon="5.185762"><time>2026-05-04T20:39:40Z</time></trkpt>
<trkpt lat="50.130145" lon="5.185522"><time>2026-05-04T20:49:40Z</time></trkpt>
</trkseg></trk>
<trk>
<name>nrchl3</name>
<cmt>d</cmt>
<desc>Han-sur-Lesse Chemin n°3 Rue du Plan d'Eau / Rue Hamerenne</desc>
<link href="https://chemins.be/hansurlesse/chemin/3"/><trkseg>
<trkpt lat="50.130145" lon="5.185522"><time>2026-05-04T20:49:40Z</time></trkpt>
<trkpt lat="50.130550" lon="5.185571"><time>2026-05-04T20:59:40Z</time></trkpt>
<trkpt lat="50.130876" lon="5.186388"><time>2026-05-04T21:09:40Z</time></trkpt>
<trkpt lat="50.131094" lon="5.187357"><time>2026-05-04T21:19:40Z</time></trkpt>
</trkseg></trk>
<trk>
<name>nrchl3</name>
<cmt>v</cmt>
<desc>Han-sur-Lesse Chemin n°3 Rue du Plan d'Eau / Rue Hamerenne</desc>
<link href="https://chemins.be/hansurlesse/chemin/3"/><trkseg>
<trkpt lat="50.131094" lon="5.187357"><time>2026-05-04T21:19:40Z</time></trkpt>
<trkpt lat="50.131335" lon="5.187669"><time>2026-05-04T21:29:40Z</time></trkpt>
<trkpt lat="50.131694" lon="5.188948"><time>2026-05-04T21:39:40Z</time></trkpt>
<trkpt lat="50.132316" lon="5.189979"><time>2026-05-04T21:49:40Z</time></trkpt>
<trkpt lat="50.132494" lon="5.190332"><time>2026-05-04T21:59:40Z</time></trkpt>
<trkpt lat="50.132562" lon="5.190795"><time>2026-05-04T22:09:40Z</time></trkpt>
</trkseg></trk>
<trk>
<name>nrchl3</name>
<cmt>d</cmt>
<desc>Han-sur-Lesse Chemin n°3 Rue du Plan d'Eau / Rue Hamerenne</desc>
<link href="https://chemins.be/hansurlesse/chemin/3"/><trkseg>
<trkpt lat="50.132562" lon="5.190795"><time>2026-05-04T22:09:40Z</time></trkpt>
<trkpt lat="50.133034" lon="5.191516"><time>2026-05-04T22:19:40Z</time></trkpt>
<trkpt lat="50.133285" lon="5.191535"><time>2026-05-04T22:29:40Z</time></trkpt>
<trkpt lat="50.133870" lon="5.190258"><time>2026-05-04T22:39:40Z</time></trkpt>
<trkpt lat="50.134497" lon="5.189373"><time>2026-05-04T22:49:40Z</time></trkpt>
<trkpt lat="50.135600" lon="5.192274"><time>2026-05-04T22:59:40Z</time></trkpt>
<trkpt lat="50.135960" lon="5.194672"><time>2026-05-04T23:09:40Z</time></trkpt>
<trkpt lat="50.136465" lon="5.195730"><time>2026-05-04T23:19:40Z</time></trkpt>
<trkpt lat="50.137050" lon="5.198147"><time>2026-05-04T23:29:40Z</time></trkpt>
<trkpt lat="50.137249" lon="5.199339"><time>2026-05-04T23:39:40Z</time></trkpt>
<trkpt lat="50.138018" lon="5.201157"><time>2026-05-04T23:49:40Z</time></trkpt>
</trkseg></trk>
<trk>
<name>nrchl3</name>
<cmt>r</cmt>
<desc>Han-sur-Lesse Chemin n°3 Rue du Plan d'Eau / Rue Hamerenne</desc>
<link href="https://chemins.be/hansurlesse/chemin/3"/><trkseg>
<trkpt lat="50.138018" lon="5.201157"><time>2026-05-04T23:49:40Z</time></trkpt>
<trkpt lat="50.139020" lon="5.203091"><time>2026-05-04T23:59:40Z</time></trkpt>
</trkseg>
</trk>
</gpx>